Site contains unofficial IBTrACS data. Visit the IBTrACS Website to access archived data.

1877 Hurricane NOT_NAMED (1877247N14341)


IBTrACS version v04r00. Visit IBTrACS website for data access.
Please direct all questions to the IBTrACS Q and A forum

Storm track - Intensity - Wind Radii - Intensity Data - Source Data - All data

Summary Information

Storm ID 1877247N14341
Start Sep 3 18Z
Max Intensity 85 kt (Sep 11 06Z), 983 mb (Sep 24 00Z)
End Sep 24 18Z
ATCF IDs
Track status Best track data.

Storm track plot

Map of storm track

Intensity plots

Map of storm track

Radial wind information

No radial wind information for this storm


Position and Intensity Table

BASIN ISO_TIME_________ NATURE LAT LON MLC WIND MLC PRES
degrees north degrees east kts mb
NA 1877-09-03 18:00:00 TS 14.40 -19.00 25
NA 21:00:00 TS 14.60 -19.75 27
NA 1877-09-04 00:00:00 TS 14.80 -20.50 30
NA 03:00:00 TS 15.00 -21.25 32
NA 06:00:00 TS 15.20 -22.00 35
NA 09:00:00 TS 15.40 -22.75 40
NA 12:00:00 TS 15.60 -23.50 45
NA 15:00:00 TS 15.80 -24.25 50
NA 18:00:00 TS 16.00 -25.00 55
NA 21:00:00 TS 16.20 -25.75 60
NA 1877-09-05 00:00:00 TS 16.40 -26.50 65
NA 03:00:00 TS 16.60 -27.25 65
NA 06:00:00 TS 16.80 -28.00 65
NA 09:00:00 TS 17.00 -28.75 65
NA 12:00:00 TS 17.20 -29.50 65
NA 15:00:00 TS 17.41 -30.26 65
NA 18:00:00 TS 17.60 -31.00 65
NA 21:00:00 TS 17.71 -31.71 65
NA 1877-09-06 00:00:00 TS 17.80 -32.40 65
NA 03:00:00 TS 17.91 -33.11 65
NA 06:00:00 TS 18.00 -33.80 65
NA 09:00:00 TS 18.02 -34.46 65
NA 12:00:00 TS 18.00 -35.10 65
NA 15:00:00 TS 17.95 -35.76 65
NA 18:00:00 TS 17.90 -36.40 65
NA 21:00:00 TS 17.90 -37.01 65
NA 1877-09-07 00:00:00 TS 17.90 -37.60 65
NA 03:00:00 TS 17.85 -38.21 65
NA 06:00:00 TS 17.80 -38.80 65
NA 09:00:00 TS 17.80 -39.36 65
NA 12:00:00 TS 17.80 -39.90 65
NA 15:00:00 TS 17.75 -40.45 65
NA 18:00:00 TS 17.70 -41.00 65
NA 21:00:00 TS 17.70 -41.56 65
NA 1877-09-08 00:00:00 TS 17.70 -42.10 65
NA 03:00:00 TS 17.66 -42.61 65
NA 06:00:00 TS 17.60 -43.10 65
NA 09:00:00 TS 17.54 -43.60 65
NA 12:00:00 TS 17.50 -44.10 65
NA 15:00:00 TS 17.48 -44.61 65
NA 18:00:00 TS 17.50 -45.10 65
NA 21:00:00 TS 17.54 -45.56 65
NA 1877-09-09 00:00:00 TS 17.60 -46.00 65
NA 03:00:00 TS 17.64 -46.45 65
NA 06:00:00 TS 17.70 -46.90 65
NA 09:00:00 TS 17.79 -47.35 65
NA 12:00:00 TS 17.90 -47.80 65
NA 15:00:00 TS 17.99 -48.25 65
NA 18:00:00 TS 18.10 -48.70 65
NA 21:00:00 TS 18.24 -49.15 65
NA 1877-09-10 00:00:00 TS 18.40 -49.60 65
NA 03:00:00 TS 18.56 -50.05 65
NA 06:00:00 TS 18.70 -50.50 65
NA 09:00:00 TS 18.80 -50.95 67
NA 12:00:00 TS 18.90 -51.40 70
NA 15:00:00 TS 19.04 -51.85 72
NA 18:00:00 TS 19.20 -52.30 75
NA 21:00:00 TS 19.35 -52.75 77
NA 1877-09-11 00:00:00 TS 19.50 -53.20 80
NA 03:00:00 TS 19.64 -53.65 82
NA 06:00:00 TS 19.80 -54.10 85
NA 09:00:00 TS 19.98 -54.57 85
NA 12:00:00 TS 20.20 -55.00 85
NA 15:00:00 TS 20.43 -55.37 85
NA 18:00:00 TS 20.70 -55.70 85
NA 21:00:00 TS 21.03 -56.01 85
NA 1877-09-12 00:00:00 TS 21.40 -56.30 85
NA 03:00:00 TS 21.75 -56.60 85
NA 06:00:00 TS 22.10 -56.90 85
NA 09:00:00 TS 22.45 -57.22 85
NA 12:00:00 TS 22.80 -57.50 85
NA 15:00:00 TS 23.15 -57.72 85
NA 18:00:00 TS 23.50 -57.90 85
NA 21:00:00 TS 23.85 -58.10 85
NA 1877-09-13 00:00:00 TS 24.20 -58.30 85
NA 03:00:00 TS 24.56 -58.51 85
NA 06:00:00 TS 24.90 -58.70 85
NA 09:00:00 TS 25.21 -58.88 85
NA 12:00:00 TS 25.50 -59.00 85
NA 15:00:00 TS 25.80 -59.04 85
NA 18:00:00 TS 26.10 -59.00 85
NA 21:00:00 TS 26.42 -58.94 85
NA 1877-09-14 00:00:00 TS 26.70 -58.80 85
NA 03:00:00 TS 26.90 -58.52 85
NA 06:00:00 TS 27.00 -58.20 85
NA 09:00:00 TS 27.03 -57.95 85
NA 12:00:00 TS 27.00 -57.70 85
NA 15:00:00 TS 26.96 -57.40 85
NA 18:00:00 TS 26.90 -57.10 85
NA 21:00:00 TS 26.86 -56.85 85
NA 1877-09-15 00:00:00 TS 26.80 -56.60 85
NA 03:00:00 TS 26.70 -56.30 85
NA 06:00:00 TS 26.60 -56.00 85
NA 09:00:00 TS 26.54 -55.73 85
NA 12:00:00 TS 26.50 -55.50 85
NA 15:00:00 TS 26.45 -55.34 85
NA 18:00:00 TS 26.40 -55.20 85
NA 21:00:00 TS 26.34 -55.05 85
NA 1877-09-16 00:00:00 TS 26.30 -54.90 85
NA 03:00:00 TS 26.30 -54.75 85
NA 06:00:00 TS 26.30 -54.60 85
NA 09:00:00 TS 26.25 -54.46 85
NA 12:00:00 TS 26.20 -54.30 85
NA 15:00:00 TS 26.19 -54.07 85
NA 18:00:00 TS 26.20 -53.80 85
NA 21:00:00 TS 26.20 -53.55 85
NA 1877-09-17 00:00:00 TS 26.20 -53.30 85
NA 03:00:00 TS 26.20 -53.05 85
NA 06:00:00 TS 26.20 -52.80 85
NA 09:00:00 TS 26.17 -52.56 85
NA 12:00:00 TS 26.20 -52.30 85
NA 15:00:00 TS 26.38 -52.00 85
NA 18:00:00 TS 26.60 -51.70 85
NA 21:00:00 TS 26.76 -51.45 82
NA 1877-09-18 00:00:00 TS 26.90 -51.20 80
NA 03:00:00 TS 27.05 -50.90 80
NA 06:00:00 TS 27.20 -50.60 80
NA 09:00:00 TS 27.34 -50.33 80
NA 12:00:00 TS 27.50 -50.10 80
NA 15:00:00 TS 27.69 -49.88 80
NA 18:00:00 TS 27.90 -49.70 80
NA 21:00:00 TS 28.10 -49.54 80
NA 1877-09-19 00:00:00 TS 28.30 -49.40 80
NA 03:00:00 TS 28.50 -49.25 77
NA 06:00:00 TS 28.70 -49.10 75
NA 09:00:00 TS 28.90 -48.96 75
NA 12:00:00 TS 29.10 -48.80 75
NA 15:00:00 TS 29.30 -48.56 75
NA 18:00:00 TS 29.50 -48.30 75
NA 21:00:00 TS 29.70 -48.09 75
NA 1877-09-20 00:00:00 TS 29.90 -47.90 75
NA 03:00:00 TS 30.10 -47.71 75
NA 06:00:00 TS 30.30 -47.50 75
NA 09:00:00 TS 30.45 -47.28 75
NA 12:00:00 TS 30.70 -47.00 75
NA 15:00:00 TS 31.20 -46.62 75
NA 18:00:00 TS 31.80 -46.20 75
NA 21:00:00 TS 32.35 -45.85 75
NA 1877-09-21 00:00:00 TS 32.90 -45.50 75
NA 03:00:00 TS 33.46 -45.10 72
NA 06:00:00 TS 34.00 -44.70 70
NA 09:00:00 TS 34.49 -44.33 70
NA 12:00:00 TS 35.00 -44.00 70
NA 15:00:00 TS 35.58 -43.69 70
NA 18:00:00 TS 36.20 -43.40 70
NA 21:00:00 TS 36.80 -43.11 70
NA 1877-09-22 00:00:00 TS 37.40 -42.80 70
NA 03:00:00 TS 38.00 -42.44 70
NA 06:00:00 TS 38.60 -42.10 70
NA 09:00:00 TS 39.22 -41.83 70
NA 12:00:00 TS 39.80 -41.60 70
NA 15:00:00 TS 40.27 -41.33 70
NA 18:00:00 TS 40.70 -41.10 70
NA 21:00:00 TS 41.15 -40.94 70
NA 1877-09-23 00:00:00 TS 41.60 -40.80 70
NA 03:00:00 TS 42.04 -40.60 70
NA 06:00:00 TS 42.50 -40.40 70
NA 09:00:00 TS 43.00 -40.25 70
NA 12:00:00 TS 43.50 -40.10 70
NA 15:00:00 TS 43.95 -39.90 70
NA 18:00:00 TS 44.40 -39.70 70
NA 21:00:00 TS 44.90 -39.55 70
NA 1877-09-24 00:00:00 TS 45.40 -39.40 70 983
NA 03:00:00 TS 45.85 -39.20 70
NA 06:00:00 TS 46.30 -39.00 70
NA 09:00:00 TS 46.79 -38.85 65
NA 12:00:00 ET 47.30 -38.70 60
NA 15:00:00 ET 47.80 -38.51 55
NA 18:00:00 ET 48.30 -38.30 50

Source Information

Agency Information
USA
TOKYO
CMA
HKO
NEWDELHI
REUNION
BOM
NADI
WELLINGTON
DS824
TD9636
TD9635
NEUMANN
MLC

All available IBTrACS Data

SEASON BASIN SUBBASIN ISO_TIME_________ NATURE LAT LON DIST2LAND LANDFALL IFLAG USA SSHS MLC LAT MLC LON MLC CLASS MLC WIND MLC PRES STORM SPEED STORM DIR
Year degrees north degrees east km km 1 degrees north degrees east kts mb kts degrees
1877 NA NA 1877-09-03 18:00:00 TS 14.40 -19.00 164 164 _____________O -1 14.40 -19.00 TD 25 15 285
1877 NA NA 21:00:00 TS 14.60 -19.75 237 237 _____________P -1 14.60 -19.75 TD 27 15 285
1877 NA NA 1877-09-04 00:00:00 TS 14.80 -20.50 322 322 _____________O -1 14.80 -20.50 TD 30 15 285
1877 NA NA 03:00:00 TS 15.00 -21.25 409 409 _____________P -1 15.00 -21.25 TD 32 15 285
1877 NA NA 06:00:00 TS 15.20 -22.00 486 486 _____________O -1 15.20 -22.00 TS 35 15 285
1877 NA NA 09:00:00 TS 15.40 -22.75 574 574 _____________P -1 15.40 -22.75 TS 40 15 285
1877 NA NA 12:00:00 TS 15.60 -23.50 652 652 _____________O -1 15.60 -23.50 TS 45 15 285
1877 NA NA 15:00:00 TS 15.80 -24.25 740 740 _____________P -1 15.80 -24.25 TS 50 15 285
1877 NA NA 18:00:00 TS 16.00 -25.00 817 817 _____________O -1 16.00 -25.00 TS 55 15 286
1877 NA NA 21:00:00 TS 16.20 -25.75 905 905 _____________P -1 16.20 -25.75 TS 60 15 286
1877 NA NA 1877-09-05 00:00:00 TS 16.40 -26.50 982 982 _____________O -1 16.40 -26.50 HU 65 15 286
1877 NA NA 03:00:00 TS 16.60 -27.25 1070 1070 _____________P -1 16.60 -27.25 HU 65 15 286
1877 NA NA 06:00:00 TS 16.80 -28.00 1148 1148 _____________O -1 16.80 -28.00 HU 65 15 286
1877 NA NA 09:00:00 TS 17.00 -28.75 1236 1236 _____________P -1 17.00 -28.75 HU 65 15 286
1877 NA NA 12:00:00 TS 17.20 -29.50 1313 1313 _____________O -1 17.20 -29.50 HU 65 15 286
1877 NA NA 15:00:00 TS 17.41 -30.26 1400 1400 _____________P -1 17.41 -30.26 HU 65 15 286
1877 NA NA 18:00:00 TS 17.60 -31.00 1477 1477 _____________O -1 17.60 -31.00 HU 65 14 282
1877 NA NA 21:00:00 TS 17.71 -31.71 1552 1552 _____________P -1 17.71 -31.71 HU 65 13 279
1877 NA NA 1877-09-06 00:00:00 TS 17.80 -32.40 1627 1627 _____________O -1 17.80 -32.40 HU 65 13 279
1877 NA NA 03:00:00 TS 17.91 -33.11 1702 1702 _____________P -1 17.91 -33.11 HU 65 13 279
1877 NA NA 06:00:00 TS 18.00 -33.80 1777 1777 _____________O -1 18.00 -33.80 HU 65 13 275
1877 NA NA 09:00:00 TS 18.02 -34.46 1850 1850 _____________P -1 18.02 -34.46 HU 65 12 270
1877 NA NA 12:00:00 TS 18.00 -35.10 1912 1912 _____________O -1 18.00 -35.10 HU 65 12 267
1877 NA NA 15:00:00 TS 17.95 -35.76 1985 1985 _____________P -1 17.95 -35.76 HU 65 12 265
1877 NA NA 18:00:00 TS 17.90 -36.40 2048 2048 _____________O -1 17.90 -36.40 HU 65 12 268
1877 NA NA 21:00:00 TS 17.90 -37.01 2111 2111 _____________P -1 17.90 -37.01 HU 65 11 270
1877 NA NA 1877-09-07 00:00:00 TS 17.90 -37.60 2131 2086 _____________O -1 17.90 -37.60 HU 65 11 268
1877 NA NA 03:00:00 TS 17.85 -38.21 2078 2034 _____________P -1 17.85 -38.21 HU 65 11 265
1877 NA NA 06:00:00 TS 17.80 -38.80 2034 1998 _____________O -1 17.80 -38.80 HU 65 11 267
1877 NA NA 09:00:00 TS 17.80 -39.36 1991 1956 _____________P -1 17.80 -39.36 HU 65 10 270
1877 NA NA 12:00:00 TS 17.80 -39.90 1956 1922 _____________O -1 17.80 -39.90 HU 65 10 267
1877 NA NA 15:00:00 TS 17.75 -40.45 1906 1873 _____________P -1 17.75 -40.45 HU 65 11 265
1877 NA NA 18:00:00 TS 17.70 -41.00 1873 1841 _____________O -1 17.70 -41.00 HU 65 11 267
1877 NA NA 21:00:00 TS 17.70 -41.56 1835 1804 _____________P -1 17.70 -41.56 HU 65 10 270
1877 NA NA 1877-09-08 00:00:00 TS 17.70 -42.10 1804 1772 _____________O -1 17.70 -42.10 HU 65 10 268
1877 NA NA 03:00:00 TS 17.66 -42.61 1772 1731 _____________P -1 17.66 -42.61 HU 65 10 264
1877 NA NA 06:00:00 TS 17.60 -43.10 1731 1690 _____________O -1 17.60 -43.10 HU 65 10 263
1877 NA NA 09:00:00 TS 17.54 -43.60 1690 1659 _____________P -1 17.54 -43.60 HU 65 10 264
1877 NA NA 12:00:00 TS 17.50 -44.10 1659 1629 _____________O -1 17.50 -44.10 HU 65 10 267
1877 NA NA 15:00:00 TS 17.48 -44.61 1629 1601 _____________P -1 17.48 -44.61 HU 65 10 270
1877 NA NA 18:00:00 TS 17.50 -45.10 1601 1579 _____________O -1 17.50 -45.10 HU 65 9 274
1877 NA NA 21:00:00 TS 17.54 -45.56 1574 1563 _____________P -1 17.54 -45.56 HU 65 9 277
1877 NA NA 1877-09-09 00:00:00 TS 17.60 -46.00 1563 1543 _____________O -1 17.60 -46.00 HU 65 9 277
1877 NA NA 03:00:00 TS 17.64 -46.45 1538 1529 _____________P -1 17.64 -46.45 HU 65 9 277
1877 NA NA 06:00:00 TS 17.70 -46.90 1529 1520 _____________O -1 17.70 -46.90 HU 65 9 280
1877 NA NA 09:00:00 TS 17.79 -47.35 1522 1509 _____________P -1 17.79 -47.35 HU 65 9 283
1877 NA NA 12:00:00 TS 17.90 -47.80 1512 1503 _____________O -1 17.90 -47.80 HU 65 9 283
1877 NA NA 15:00:00 TS 17.99 -48.25 1498 1489 _____________P -1 17.99 -48.25 HU 65 9 283
1877 NA NA 18:00:00 TS 18.10 -48.70 1491 1482 _____________O -1 18.10 -48.70 HU 65 9 286
1877 NA NA 21:00:00 TS 18.24 -49.15 1480 1479 _____________P -1 18.24 -49.15 HU 65 9 289
1877 NA NA 1877-09-10 00:00:00 TS 18.40 -49.60 1486 1470 _____________O -1 18.40 -49.60 HU 65 9 290
1877 NA NA 03:00:00 TS 18.56 -50.05 1468 1440 _____________P -1 18.56 -50.05 HU 65 9 289
1877 NA NA 06:00:00 TS 18.70 -50.50 1440 1414 _____________O -1 18.70 -50.50 HU 65 9 286
1877 NA NA 09:00:00 TS 18.80 -50.95 1406 1380 _____________P -1 18.80 -50.95 HU 67 9 283
1877 NA NA 12:00:00 TS 18.90 -51.40 1380 1356 _____________O -1 18.90 -51.40 HU 70 9 286
1877 NA NA 15:00:00 TS 19.04 -51.85 1348 1333 _____________P -1 19.04 -51.85 HU 72 9 289
1877 NA NA 18:00:00 TS 19.20 -52.30 1333 1311 _____________O -1 19.20 -52.30 HU 75 9 290
1877 NA NA 21:00:00 TS 19.35 -52.75 1304 1292 _____________P -1 19.35 -52.75 HU 77 9 289
1877 NA NA 1877-09-11 00:00:00 TS 19.50 -53.20 1292 1268 _____________O -1 19.50 -53.20 HU 80 9 289
1877 NA NA 03:00:00 TS 19.64 -53.65 1258 1218 _____________P -1 19.64 -53.65 HU 82 9 289
1877 NA NA 06:00:00 TS 19.80 -54.10 1218 1177 _____________O -1 19.80 -54.10 HU 85 9 292
1877 NA NA 09:00:00 TS 19.98 -54.57 1168 1130 _____________P -1 19.98 -54.57 HU 85 9 295
1877 NA NA 12:00:00 TS 20.20 -55.00 1130 1092 _____________O -1 20.20 -55.00 HU 85 9 300
1877 NA NA 15:00:00 TS 20.43 -55.37 1092 1068 _____________P -1 20.43 -55.37 HU 85 8 307
1877 NA NA 18:00:00 TS 20.70 -55.70 1068 1045 _____________O -1 20.70 -55.70 HU 85 9 316
1877 NA NA 21:00:00 TS 21.03 -56.01 1045 1025 _____________P -1 21.03 -56.01 HU 85 9 321
1877 NA NA 1877-09-12 00:00:00 TS 21.40 -56.30 1028 1009 _____________O -1 21.40 -56.30 HU 85 9 322
1877 NA NA 03:00:00 TS 21.75 -56.60 1009 997 _____________P -1 21.75 -56.60 HU 85 9 322
1877 NA NA 06:00:00 TS 22.10 -56.90 997 982 _____________O -1 22.10 -56.90 HU 85 9 321
1877 NA NA 09:00:00 TS 22.45 -57.22 987 970 _____________P -1 22.45 -57.22 HU 85 9 322
1877 NA NA 12:00:00 TS 22.80 -57.50 975 972 _____________O -1 22.80 -57.50 HU 85 8 327
1877 NA NA 15:00:00 TS 23.15 -57.72 974 971 _____________P -1 23.15 -57.72 HU 85 8 332
1877 NA NA 18:00:00 TS 23.50 -57.90 981 979 _____________O -1 23.50 -57.90 HU 85 8 333
1877 NA NA 21:00:00 TS 23.85 -58.10 984 982 _____________P -1 23.85 -58.10 HU 85 8 332
1877 NA NA 1877-09-13 00:00:00 TS 24.20 -58.30 995 995 _____________O -1 24.20 -58.30 HU 85 8 332
1877 NA NA 03:00:00 TS 24.56 -58.51 1009 1001 _____________P -1 24.56 -58.51 HU 85 8 332
1877 NA NA 06:00:00 TS 24.90 -58.70 1017 1017 _____________O -1 24.90 -58.70 HU 85 7 333
1877 NA NA 09:00:00 TS 25.21 -58.88 1027 1027 _____________P -1 25.21 -58.88 HU 85 7 336
1877 NA NA 12:00:00 TS 25.50 -59.00 1045 1045 _____________O -1 25.50 -59.00 HU 85 6 347
1877 NA NA 15:00:00 TS 25.80 -59.04 1070 1070 _____________P -1 25.80 -59.04 HU 85 6 1
1877 NA NA 18:00:00 TS 26.10 -59.00 1095 1095 _____________O -1 26.10 -59.00 HU 85 6 8
1877 NA NA 21:00:00 TS 26.42 -58.94 1128 1128 _____________P -1 26.42 -58.94 HU 85 6 16
1877 NA NA 1877-09-14 00:00:00 TS 26.70 -58.80 1160 1160 _____________O -1 26.70 -58.80 HU 85 6 39
1877 NA NA 03:00:00 TS 26.90 -58.52 1196 1196 _____________P -1 26.90 -58.52 HU 85 6 61
1877 NA NA 06:00:00 TS 27.00 -58.20 1224 1224 _____________O -1 27.00 -58.20 HU 85 5 75
1877 NA NA 09:00:00 TS 27.03 -57.95 1243 1243 _____________P -1 27.03 -57.95 HU 85 4 90
1877 NA NA 12:00:00 TS 27.00 -57.70 1256 1256 _____________O -1 27.00 -57.70 HU 85 5 98
1877 NA NA 15:00:00 TS 26.96 -57.40 1276 1274 _____________P -1 26.96 -57.40 HU 85 5 101
1877 NA NA 18:00:00 TS 26.90 -57.10 1288 1288 _____________O -1 26.90 -57.10 HU 85 5 102
1877 NA NA 21:00:00 TS 26.86 -56.85 1302 1301 _____________P -1 26.86 -56.85 HU 85 5 103
1877 NA NA 1877-09-15 00:00:00 TS 26.80 -56.60 1316 1316 _____________O -1 26.80 -56.60 HU 85 5 108
1877 NA NA 03:00:00 TS 26.70 -56.30 1330 1330 _____________P -1 26.70 -56.30 HU 85 6 110
1877 NA NA 06:00:00 TS 26.60 -56.00 1345 1345 _____________O -1 26.60 -56.00 HU 85 5 107
1877 NA NA 09:00:00 TS 26.54 -55.73 1360 1360 _____________P -1 26.54 -55.73 HU 85 5 103
1877 NA NA 12:00:00 TS 26.50 -55.50 1375 1375 _____________O -1 26.50 -55.50 HU 85 4 105
1877 NA NA 15:00:00 TS 26.45 -55.34 1384 1384 _____________P -1 26.45 -55.34 HU 85 3 111
1877 NA NA 18:00:00 TS 26.40 -55.20 1392 1392 _____________O -1 26.40 -55.20 HU 85 3 113
1877 NA NA 21:00:00 TS 26.34 -55.05 1401 1401 _____________P -1 26.34 -55.05 HU 85 3 111
1877 NA NA 1877-09-16 00:00:00 TS 26.30 -54.90 1409 1409 _____________O -1 26.30 -54.90 HU 85 3 99
1877 NA NA 03:00:00 TS 26.30 -54.75 1417 1417 _____________P -1 26.30 -54.75 HU 85 3 90
1877 NA NA 06:00:00 TS 26.30 -54.60 1433 1433 _____________O -1 26.30 -54.60 HU 85 3 101
1877 NA NA 09:00:00 TS 26.25 -54.46 1435 1435 _____________P -1 26.25 -54.46 HU 85 3 111
1877 NA NA 12:00:00 TS 26.20 -54.30 1451 1451 _____________O -1 26.20 -54.30 HU 85 4 99
1877 NA NA 15:00:00 TS 26.19 -54.07 1468 1468 _____________P -1 26.19 -54.07 HU 85 4 90
1877 NA NA 18:00:00 TS 26.20 -53.80 1492 1492 _____________O -1 26.20 -53.80 HU 85 5 89
1877 NA NA 21:00:00 TS 26.20 -53.55 1518 1509 _____________P -1 26.20 -53.55 HU 85 4 90
1877 NA NA 1877-09-17 00:00:00 TS 26.20 -53.30 1534 1534 _____________O -1 26.20 -53.30 HU 85 4 90
1877 NA NA 03:00:00 TS 26.20 -53.05 1560 1560 _____________P -1 26.20 -53.05 HU 85 4 90
1877 NA NA 06:00:00 TS 26.20 -52.80 1577 1577 _____________O -1 26.20 -52.80 HU 85 4 94
1877 NA NA 09:00:00 TS 26.17 -52.56 1594 1594 _____________P -1 26.17 -52.56 HU 85 4 90
1877 NA NA 12:00:00 TS 26.20 -52.30 1620 1620 _____________O -1 26.20 -52.30 HU 85 5 67
1877 NA NA 15:00:00 TS 26.38 -52.00 1657 1657 _____________P -1 26.38 -52.00 HU 85 7 53
1877 NA NA 18:00:00 TS 26.60 -51.70 1694 1694 _____________O -1 26.60 -51.70 HU 85 6 52
1877 NA NA 21:00:00 TS 26.76 -51.45 1731 1731 _____________P -1 26.76 -51.45 HU 82 5 56
1877 NA NA 1877-09-18 00:00:00 TS 26.90 -51.20 1754 1754 _____________O -1 26.90 -51.20 HU 80 6 59
1877 NA NA 03:00:00 TS 27.05 -50.90 1790 1790 _____________P -1 27.05 -50.90 HU 80 6 61
1877 NA NA 06:00:00 TS 27.20 -50.60 1822 1822 _____________O -1 27.20 -50.60 HU 80 6 60
1877 NA NA 09:00:00 TS 27.34 -50.33 1853 1853 _____________P -1 27.34 -50.33 HU 80 5 56
1877 NA NA 12:00:00 TS 27.50 -50.10 1881 1881 _____________O -1 27.50 -50.10 HU 80 5 49
1877 NA NA 15:00:00 TS 27.69 -49.88 1909 1909 _____________P -1 27.69 -49.88 HU 80 5 41
1877 NA NA 18:00:00 TS 27.90 -49.70 1937 1937 _____________O -1 27.90 -49.70 HU 80 5 37
1877 NA NA 21:00:00 TS 28.10 -49.54 1966 1966 _____________P -1 28.10 -49.54 HU 80 5 34
1877 NA NA 1877-09-19 00:00:00 TS 28.30 -49.40 1985 1985 _____________O -1 28.30 -49.40 HU 80 5 33
1877 NA NA 03:00:00 TS 28.50 -49.25 2013 2013 _____________P -1 28.50 -49.25 HU 77 5 33
1877 NA NA 06:00:00 TS 28.70 -49.10 2024 2004 _____________O -1 28.70 -49.10 HU 75 5 32
1877 NA NA 09:00:00 TS 28.90 -48.96 2004 1985 _____________P -1 28.90 -48.96 HU 75 5 33
1877 NA NA 12:00:00 TS 29.10 -48.80 1985 1967 _____________O -1 29.10 -48.80 HU 75 5 42
1877 NA NA 15:00:00 TS 29.30 -48.56 1967 1948 _____________P -1 29.30 -48.56 HU 75 6 47
1877 NA NA 18:00:00 TS 29.50 -48.30 1950 1932 _____________O -1 29.50 -48.30 HU 75 6 45
1877 NA NA 21:00:00 TS 29.70 -48.09 1932 1914 _____________P -1 29.70 -48.09 HU 75 5 41
1877 NA NA 1877-09-20 00:00:00 TS 29.90 -47.90 1914 1895 _____________O -1 29.90 -47.90 HU 75 5 40
1877 NA NA 03:00:00 TS 30.10 -47.71 1897 1879 _____________P -1 30.10 -47.71 HU 75 5 41
1877 NA NA 06:00:00 TS 30.30 -47.50 1879 1871 _____________O -1 30.30 -47.50 HU 75 5 47
1877 NA NA 09:00:00 TS 30.45 -47.28 1873 1848 _____________P -1 30.45 -47.28 HU 75 6 47
1877 NA NA 12:00:00 TS 30.70 -47.00 1848 1804 _____________O -1 30.70 -47.00 HU 75 9 37
1877 NA NA 15:00:00 TS 31.20 -46.62 1804 1752 _____________P -1 31.20 -46.62 HU 75 13 32
1877 NA NA 18:00:00 TS 31.80 -46.20 1752 1708 _____________O -1 31.80 -46.20 HU 75 13 29
1877 NA NA 21:00:00 TS 32.35 -45.85 1711 1658 _____________P -1 32.35 -45.85 HU 75 13 28
1877 NA NA 1877-09-21 00:00:00 TS 32.90 -45.50 1658 1616 _____________O -1 32.90 -45.50 HU 75 13 30
1877 NA NA 03:00:00 TS 33.46 -45.10 1609 1573 _____________P -1 33.46 -45.10 HU 72 13 31
1877 NA NA 06:00:00 TS 34.00 -44.70 1573 1534 _____________O -1 34.00 -44.70 HU 70 12 31
1877 NA NA 09:00:00 TS 34.49 -44.33 1538 1501 _____________P -1 34.49 -44.33 HU 70 12 30
1877 NA NA 12:00:00 TS 35.00 -44.00 1501 1456 _____________O -1 35.00 -44.00 HU 70 12 26
1877 NA NA 15:00:00 TS 35.58 -43.69 1456 1412 _____________P -1 35.58 -43.69 HU 70 13 22
1877 NA NA 18:00:00 TS 36.20 -43.40 1412 1371 _____________O -1 36.20 -43.40 HU 70 13 21
1877 NA NA 21:00:00 TS 36.80 -43.11 1371 1332 _____________P -1 36.80 -43.11 HU 70 13 22
1877 NA NA 1877-09-22 00:00:00 TS 37.40 -42.80 1332 1295 _____________O -1 37.40 -42.80 HU 70 13 24
1877 NA NA 03:00:00 TS 38.00 -42.44 1300 1266 _____________P -1 38.00 -42.44 HU 70 13 25
1877 NA NA 06:00:00 TS 38.60 -42.10 1266 1229 _____________O -1 38.60 -42.10 HU 70 13 21
1877 NA NA 09:00:00 TS 39.22 -41.83 1235 1201 _____________P -1 39.22 -41.83 HU 70 13 18
1877 NA NA 12:00:00 TS 39.80 -41.60 1201 1184 _____________O -1 39.80 -41.60 HU 70 11 20
1877 NA NA 15:00:00 TS 40.27 -41.33 1183 1167 _____________P -1 40.27 -41.33 HU 70 10 23
1877 NA NA 18:00:00 TS 40.70 -41.10 1167 1145 _____________O -1 40.70 -41.10 HU 70 9 19
1877 NA NA 21:00:00 TS 41.15 -40.94 1152 1125 _____________P -1 41.15 -40.94 HU 70 9 14
1877 NA NA 1877-09-23 00:00:00 TS 41.60 -40.80 1126 1114 _____________O -1 41.60 -40.80 HU 70 9 16
1877 NA NA 03:00:00 TS 42.04 -40.60 1115 1098 _____________P -1 42.04 -40.60 HU 70 9 18
1877 NA NA 06:00:00 TS 42.50 -40.40 1100 1079 _____________O -1 42.50 -40.40 HU 70 10 15
1877 NA NA 09:00:00 TS 43.00 -40.25 1086 1065 _____________P -1 43.00 -40.25 HU 70 10 12
1877 NA NA 12:00:00 TS 43.50 -40.10 1065 1056 _____________O -1 43.50 -40.10 HU 70 10 15
1877 NA NA 15:00:00 TS 43.95 -39.90 1054 1047 _____________P -1 43.95 -39.90 HU 70 9 18
1877 NA NA 18:00:00 TS 44.40 -39.70 1049 1035 _____________O -1 44.40 -39.70 HU 70 10 15
1877 NA NA 21:00:00 TS 44.90 -39.55 1043 1031 _____________P -1 44.90 -39.55 HU 70 10 12
1877 NA NA 1877-09-24 00:00:00 TS 45.40 -39.40 1032 1028 _____________O -1 45.40 -39.40 HU 70 983 10 14
1877 NA NA 03:00:00 TS 45.85 -39.20 1031 1031 _____________P -1 45.85 -39.20 HU 70 9 17
1877 NA NA 06:00:00 TS 46.30 -39.00 1036 1033 _____________O -1 46.30 -39.00 HU 70 10 14
1877 NA NA 09:00:00 TS 46.79 -38.85 1040 1035 _____________P -1 46.79 -38.85 HU 65 10 12
1877 NA NA 12:00:00 ET 47.30 -38.70 1040 1039 _____________O -1 47.30 -38.70 EX 60 10 13
1877 NA NA 15:00:00 ET 47.80 -38.51 1050 1050 _____________P -1 47.80 -38.51 EX 55 10 15
1877 NA NA 18:00:00 ET 48.30 -38.30 1063 _____________O -1 48.30 -38.30 EX 50 10 16